sensor_id;sensor_type;location;lat;lon;timestamp;P1;durP1;ratioP1;P2;durP2;ratioP2
69334;SDS011;56477;52.742;15.242;2024-01-06T00:01:53;20.42;;;8.52;;
69334;SDS011;56477;52.742;15.242;2024-01-06T00:04:18;16.60;;;6.68;;
69334;SDS011;56477;52.742;15.242;2024-01-06T00:06:44;23.87;;;8.73;;
69334;SDS011;56477;52.742;15.242;2024-01-06T00:09:10;23.98;;;8.35;;
69334;SDS011;56477;52.742;15.242;2024-01-06T00:11:36;23.10;;;9.23;;
69334;SDS011;56477;52.742;15.242;2024-01-06T00:14:02;15.50;;;6.17;;
69334;SDS011;56477;52.742;15.242;2024-01-06T00:16:28;21.65;;;7.60;;
69334;SDS011;56477;52.742;15.242;2024-01-06T00:18:54;25.80;;;9.45;;
69334;SDS011;56477;52.742;15.242;2024-01-06T00:21:20;29.55;;;9.65;;
69334;SDS011;56477;52.742;15.242;2024-01-06T00:23:46;19.83;;;7.63;;
69334;SDS011;56477;52.742;15.242;2024-01-06T00:26:12;23.88;;;7.30;;
69334;SDS011;56477;52.742;15.242;2024-01-06T00:28:41;29.08;;;10.13;;
69334;SDS011;56477;52.742;15.242;2024-01-06T00:31:07;23.30;;;8.50;;
69334;SDS011;56477;52.742;15.242;2024-01-06T00:33:33;23.02;;;8.77;;
69334;SDS011;56477;52.742;15.242;2024-01-06T00:35:59;23.38;;;8.48;;
69334;SDS011;56477;52.742;15.242;2024-01-06T00:38:25;20.10;;;7.80;;
69334;SDS011;56477;52.742;15.242;2024-01-06T00:40:51;20.77;;;7.38;;
69334;SDS011;56477;52.742;15.242;2024-01-06T00:43:17;21.25;;;7.55;;
69334;SDS011;56477;52.742;15.242;2024-01-06T00:45:43;25.93;;;9.50;;
69334;SDS011;56477;52.742;15.242;2024-01-06T00:48:08;16.38;;;6.88;;
69334;SDS011;56477;52.742;15.242;2024-01-06T00:50:34;22.85;;;8.35;;
69334;SDS011;56477;52.742;15.242;2024-01-06T00:53:00;19.53;;;7.17;;
69334;SDS011;56477;52.742;15.242;2024-01-06T00:55:26;22.45;;;7.82;;
69334;SDS011;56477;52.742;15.242;2024-01-06T00:57:52;22.30;;;9.23;;
69334;SDS011;56477;52.742;15.242;2024-01-06T01:00:18;21.23;;;7.30;;
69334;SDS011;56477;52.742;15.242;2024-01-06T01:02:44;20.47;;;8.50;;
69334;SDS011;56477;52.742;15.242;2024-01-06T01:05:11;9.45;;;3.80;;
69334;SDS011;56477;52.742;15.242;2024-01-06T01:07:36;19.33;;;8.07;;
69334;SDS011;56477;52.742;15.242;2024-01-06T01:10:03;23.98;;;8.55;;
69334;SDS011;56477;52.742;15.242;2024-01-06T01:12:30;28.10;;;10.87;;
69334;SDS011;56477;52.742;15.242;2024-01-06T01:14:56;24.75;;;9.25;;
69334;SDS011;56477;52.742;15.242;2024-01-06T01:17:21;18.70;;;6.28;;
69334;SDS011;56477;52.742;15.242;2024-01-06T01:19:48;26.70;;;10.63;;
69334;SDS011;56477;52.742;15.242;2024-01-06T01:22:13;30.23;;;11.20;;
69334;SDS011;56477;52.742;15.242;2024-01-06T01:24:39;28.55;;;11.80;;
69334;SDS011;56477;52.742;15.242;2024-01-06T01:27:05;29.30;;;11.63;;
69334;SDS011;56477;52.742;15.242;2024-01-06T01:29:31;31.33;;;11.57;;
69334;SDS011;56477;52.742;15.242;2024-01-06T01:31:57;32.63;;;11.23;;
69334;SDS011;56477;52.742;15.242;2024-01-06T01:34:23;29.88;;;11.05;;
69334;SDS011;56477;52.742;15.242;2024-01-06T01:36:49;26.93;;;10.67;;
69334;SDS011;56477;52.742;15.242;2024-01-06T01:39:17;31.92;;;11.20;;
69334;SDS011;56477;52.742;15.242;2024-01-06T01:41:42;23.85;;;9.35;;
69334;SDS011;56477;52.742;15.242;2024-01-06T01:44:09;33.50;;;12.55;;
69334;SDS011;56477;52.742;15.242;2024-01-06T01:46:34;25.23;;;9.37;;
69334;SDS011;56477;52.742;15.242;2024-01-06T01:49:01;35.58;;;12.55;;
69334;SDS011;56477;52.742;15.242;2024-01-06T01:51:28;25.30;;;10.73;;
69334;SDS011;56477;52.742;15.242;2024-01-06T01:54:01;29.30;;;9.90;;
69334;SDS011;56477;52.742;15.242;2024-01-06T01:56:29;30.33;;;10.50;;
69334;SDS011;56477;52.742;15.242;2024-01-06T01:59:05;32.15;;;11.43;;
69334;SDS011;56477;52.742;15.242;2024-01-06T02:01:32;29.42;;;10.35;;
69334;SDS011;56477;52.742;15.242;2024-01-06T02:03:59;25.15;;;10.13;;
69334;SDS011;56477;52.742;15.242;2024-01-06T02:06:24;29.40;;;11.80;;
69334;SDS011;56477;52.742;15.242;2024-01-06T02:08:51;28.40;;;11.20;;
69334;SDS011;56477;52.742;15.242;2024-01-06T02:11:17;28.85;;;10.88;;
69334;SDS011;56477;52.742;15.242;2024-01-06T02:13:43;29.83;;;11.40;;
69334;SDS011;56477;52.742;15.242;2024-01-06T02:16:08;26.70;;;9.97;;
69334;SDS011;56477;52.742;15.242;2024-01-06T02:18:34;30.85;;;11.10;;
69334;SDS011;56477;52.742;15.242;2024-01-06T02:21:01;29.33;;;10.68;;
69334;SDS011;56477;52.742;15.242;2024-01-06T02:23:28;23.30;;;8.65;;
69334;SDS011;56477;52.742;15.242;2024-01-06T02:25:55;30.70;;;11.53;;
69334;SDS011;56477;52.742;15.242;2024-01-06T02:28:21;27.17;;;10.60;;
69334;SDS011;56477;52.742;15.242;2024-01-06T02:30:47;28.08;;;9.93;;
69334;SDS011;56477;52.742;15.242;2024-01-06T02:33:15;29.95;;;11.20;;
69334;SDS011;56477;52.742;15.242;2024-01-06T02:35:41;30.33;;;10.47;;
69334;SDS011;56477;52.742;15.242;2024-01-06T02:38:07;27.83;;;11.10;;
69334;SDS011;56477;52.742;15.242;2024-01-06T02:40:34;28.13;;;10.40;;
69334;SDS011;56477;52.742;15.242;2024-01-06T02:43:00;25.77;;;9.60;;
69334;SDS011;56477;52.742;15.242;2024-01-06T02:45:25;30.37;;;10.93;;
69334;SDS011;56477;52.742;15.242;2024-01-06T02:47:51;34.30;;;10.48;;
69334;SDS011;56477;52.742;15.242;2024-01-06T02:50:17;28.48;;;10.90;;
69334;SDS011;56477;52.742;15.242;2024-01-06T02:52:44;28.92;;;11.07;;
69334;SDS011;56477;52.742;15.242;2024-01-06T02:55:10;32.23;;;11.13;;
69334;SDS011;56477;52.742;15.242;2024-01-06T02:57:37;28.25;;;9.05;;
69334;SDS011;56477;52.742;15.242;2024-01-06T03:00:03;26.95;;;9.02;;
69334;SDS011;56477;52.742;15.242;2024-01-06T03:02:30;14.82;;;5.15;;
69334;SDS011;56477;52.742;15.242;2024-01-06T03:04:56;30.80;;;10.73;;
69334;SDS011;56477;52.742;15.242;2024-01-06T03:07:22;27.80;;;10.65;;
69334;SDS011;56477;52.742;15.242;2024-01-06T03:09:48;33.05;;;11.95;;
69334;SDS011;56477;52.742;15.242;2024-01-06T03:12:14;28.98;;;10.68;;
69334;SDS011;56477;52.742;15.242;2024-01-06T03:14:39;32.43;;;11.40;;
69334;SDS011;56477;52.742;15.242;2024-01-06T03:17:05;29.00;;;11.07;;
69334;SDS011;56477;52.742;15.242;2024-01-06T03:19:31;29.17;;;10.15;;
69334;SDS011;56477;52.742;15.242;2024-01-06T03:21:57;29.60;;;9.33;;
69334;SDS011;56477;52.742;15.242;2024-01-06T03:24:24;28.65;;;10.38;;
69334;SDS011;56477;52.742;15.242;2024-01-06T03:26:51;26.80;;;10.20;;
69334;SDS011;56477;52.742;15.242;2024-01-06T03:29:17;30.52;;;11.13;;
69334;SDS011;56477;52.742;15.242;2024-01-06T03:31:44;26.50;;;9.53;;
69334;SDS011;56477;52.742;15.242;2024-01-06T03:34:10;29.98;;;10.27;;
69334;SDS011;56477;52.742;15.242;2024-01-06T03:36:37;30.13;;;12.43;;
69334;SDS011;56477;52.742;15.242;2024-01-06T03:39:03;31.55;;;10.32;;
69334;SDS011;56477;52.742;15.242;2024-01-06T03:41:30;30.55;;;10.82;;
69334;SDS011;56477;52.742;15.242;2024-01-06T03:43:56;22.27;;;7.63;;
69334;SDS011;56477;52.742;15.242;2024-01-06T03:46:22;23.15;;;9.32;;
69334;SDS011;56477;52.742;15.242;2024-01-06T03:48:48;30.00;;;11.38;;
69334;SDS011;56477;52.742;15.242;2024-01-06T03:51:14;23.20;;;8.40;;
69334;SDS011;56477;52.742;15.242;2024-01-06T03:53:40;33.83;;;12.48;;
69334;SDS011;56477;52.742;15.242;2024-01-06T03:56:07;38.35;;;14.15;;
69334;SDS011;56477;52.742;15.242;2024-01-06T03:58:33;36.80;;;13.57;;
69334;SDS011;56477;52.742;15.242;2024-01-06T04:00:59;33.57;;;12.60;;
69334;SDS011;56477;52.742;15.242;2024-01-06T04:03:25;33.88;;;12.68;;
69334;SDS011;56477;52.742;15.242;2024-01-06T04:05:51;26.38;;;11.10;;
69334;SDS011;56477;52.742;15.242;2024-01-06T04:08:17;30.10;;;9.60;;
69334;SDS011;56477;52.742;15.242;2024-01-06T04:10:44;34.90;;;10.98;;
69334;SDS011;56477;52.742;15.242;2024-01-06T04:13:10;28.43;;;9.57;;
69334;SDS011;56477;52.742;15.242;2024-01-06T04:15:37;30.25;;;12.13;;
69334;SDS011;56477;52.742;15.242;2024-01-06T04:18:03;32.88;;;12.35;;
69334;SDS011;56477;52.742;15.242;2024-01-06T04:20:31;35.13;;;11.00;;
69334;SDS011;56477;52.742;15.242;2024-01-06T04:22:57;36.07;;;12.67;;
69334;SDS011;56477;52.742;15.242;2024-01-06T04:25:23;34.85;;;11.73;;
69334;SDS011;56477;52.742;15.242;2024-01-06T04:27:49;31.70;;;10.65;;
69334;SDS011;56477;52.742;15.242;2024-01-06T04:30:16;24.92;;;10.18;;
69334;SDS011;56477;52.742;15.242;2024-01-06T04:32:42;28.85;;;10.45;;
69334;SDS011;56477;52.742;15.242;2024-01-06T04:35:09;30.83;;;12.27;;
69334;SDS011;56477;52.742;15.242;2024-01-06T04:37:35;24.25;;;9.48;;
69334;SDS011;56477;52.742;15.242;2024-01-06T04:40:02;29.05;;;11.02;;
69334;SDS011;56477;52.742;15.242;2024-01-06T04:42:29;24.95;;;8.95;;
69334;SDS011;56477;52.742;15.242;2024-01-06T04:44:55;23.38;;;7.70;;
69334;SDS011;56477;52.742;15.242;2024-01-06T04:47:21;23.97;;;8.70;;
69334;SDS011;56477;52.742;15.242;2024-01-06T04:49:47;30.23;;;10.75;;
69334;SDS011;56477;52.742;15.242;2024-01-06T04:52:13;34.00;;;11.95;;
69334;SDS011;56477;52.742;15.242;2024-01-06T04:54:39;30.57;;;11.97;;
69334;SDS011;56477;52.742;15.242;2024-01-06T04:57:04;29.17;;;11.60;;
69334;SDS011;56477;52.742;15.242;2024-01-06T04:59:30;29.33;;;10.65;;
69334;SDS011;56477;52.742;15.242;2024-01-06T05:01:57;25.43;;;9.23;;
69334;SDS011;56477;52.742;15.242;2024-01-06T05:04:24;27.05;;;10.23;;
69334;SDS011;56477;52.742;15.242;2024-01-06T05:06:53;27.05;;;10.40;;
69334;SDS011;56477;52.742;15.242;2024-01-06T05:09:20;35.30;;;12.27;;
69334;SDS011;56477;52.742;15.242;2024-01-06T05:11:45;14.57;;;5.87;;
69334;SDS011;56477;52.742;15.242;2024-01-06T05:14:12;30.65;;;11.30;;
69334;SDS011;56477;52.742;15.242;2024-01-06T05:16:37;31.45;;;11.18;;
69334;SDS011;56477;52.742;15.242;2024-01-06T05:19:04;23.30;;;8.87;;
69334;SDS011;56477;52.742;15.242;2024-01-06T05:21:29;28.40;;;10.85;;
69334;SDS011;56477;52.742;15.242;2024-01-06T05:23:56;30.67;;;11.43;;
69334;SDS011;56477;52.742;15.242;2024-01-06T05:26:22;32.53;;;11.63;;
69334;SDS011;56477;52.742;15.242;2024-01-06T05:28:48;32.00;;;11.73;;
69334;SDS011;56477;52.742;15.242;2024-01-06T05:31:14;27.08;;;10.52;;
69334;SDS011;56477;52.742;15.242;2024-01-06T05:33:40;30.58;;;12.18;;
69334;SDS011;56477;52.742;15.242;2024-01-06T05:36:06;28.20;;;11.17;;
69334;SDS011;56477;52.742;15.242;2024-01-06T05:38:32;19.08;;;6.85;;
69334;SDS011;56477;52.742;15.242;2024-01-06T05:40:58;29.25;;;10.73;;
69334;SDS011;56477;52.742;15.242;2024-01-06T05:43:24;28.43;;;10.47;;
69334;SDS011;56477;52.742;15.242;2024-01-06T05:45:50;26.33;;;9.27;;
69334;SDS011;56477;52.742;15.242;2024-01-06T05:48:16;34.17;;;12.10;;
69334;SDS011;56477;52.742;15.242;2024-01-06T05:50:42;20.15;;;7.75;;
69334;SDS011;56477;52.742;15.242;2024-01-06T05:53:08;29.35;;;10.95;;
69334;SDS011;56477;52.742;15.242;2024-01-06T05:55:35;29.00;;;10.70;;
69334;SDS011;56477;52.742;15.242;2024-01-06T05:58:02;29.98;;;10.57;;
69334;SDS011;56477;52.742;15.242;2024-01-06T06:00:27;30.60;;;10.57;;
69334;SDS011;56477;52.742;15.242;2024-01-06T06:02:57;32.65;;;11.48;;
69334;SDS011;56477;52.742;15.242;2024-01-06T06:05:23;25.42;;;9.80;;
69334;SDS011;56477;52.742;15.242;2024-01-06T06:07:49;25.23;;;8.07;;
69334;SDS011;56477;52.742;15.242;2024-01-06T06:10:15;23.30;;;8.05;;
69334;SDS011;56477;52.742;15.242;2024-01-06T06:12:44;27.80;;;10.32;;
69334;SDS011;56477;52.742;15.242;2024-01-06T06:15:10;24.83;;;8.27;;
69334;SDS011;56477;52.742;15.242;2024-01-06T06:17:36;28.45;;;10.60;;
69334;SDS011;56477;52.742;15.242;2024-01-06T06:20:02;30.98;;;11.07;;
69334;SDS011;56477;52.742;15.242;2024-01-06T06:22:29;24.45;;;8.00;;
69334;SDS011;56477;52.742;15.242;2024-01-06T06:24:57;27.25;;;11.32;;
69334;SDS011;56477;52.742;15.242;2024-01-06T06:27:24;34.87;;;11.70;;
69334;SDS011;56477;52.742;15.242;2024-01-06T06:29:50;25.80;;;9.73;;
69334;SDS011;56477;52.742;15.242;2024-01-06T06:32:16;30.02;;;11.13;;
69334;SDS011;56477;52.742;15.242;2024-01-06T06:34:42;30.08;;;10.45;;
69334;SDS011;56477;52.742;15.242;2024-01-06T06:37:09;29.73;;;10.27;;
69334;SDS011;56477;52.742;15.242;2024-01-06T06:39:35;22.73;;;9.15;;
69334;SDS011;56477;52.742;15.242;2024-01-06T06:42:01;25.13;;;7.93;;
69334;SDS011;56477;52.742;15.242;2024-01-06T06:44:28;30.75;;;11.07;;
69334;SDS011;56477;52.742;15.242;2024-01-06T06:46:55;28.53;;;9.73;;
69334;SDS011;56477;52.742;15.242;2024-01-06T06:49:21;25.00;;;9.35;;
69334;SDS011;56477;52.742;15.242;2024-01-06T06:51:48;29.23;;;11.18;;
69334;SDS011;56477;52.742;15.242;2024-01-06T06:54:14;26.85;;;10.70;;
69334;SDS011;56477;52.742;15.242;2024-01-06T06:56:44;17.93;;;6.63;;
69334;SDS011;56477;52.742;15.242;2024-01-06T06:59:10;23.63;;;9.68;;
69334;SDS011;56477;52.742;15.242;2024-01-06T07:01:37;25.98;;;10.60;;
69334;SDS011;56477;52.742;15.242;2024-01-06T07:04:03;30.02;;;10.30;;
69334;SDS011;56477;52.742;15.242;2024-01-06T07:06:29;31.08;;;11.68;;
69334;SDS011;56477;52.742;15.242;2024-01-06T07:08:56;18.33;;;7.20;;
69334;SDS011;56477;52.742;15.242;2024-01-06T07:11:22;25.58;;;10.35;;
69334;SDS011;56477;52.742;15.242;2024-01-06T07:13:49;25.95;;;10.23;;
69334;SDS011;56477;52.742;15.242;2024-01-06T07:16:16;21.83;;;9.20;;
69334;SDS011;56477;52.742;15.242;2024-01-06T07:18:41;26.88;;;11.13;;
69334;SDS011;56477;52.742;15.242;2024-01-06T07:21:08;22.73;;;9.50;;
69334;SDS011;56477;52.742;15.242;2024-01-06T07:23:34;28.20;;;11.63;;
69334;SDS011;56477;52.742;15.242;2024-01-06T07:26:00;26.15;;;9.82;;
69334;SDS011;56477;52.742;15.242;2024-01-06T07:28:26;26.50;;;9.15;;
69334;SDS011;56477;52.742;15.242;2024-01-06T07:30:53;24.57;;;7.97;;
69334;SDS011;56477;52.742;15.242;2024-01-06T07:33:19;26.25;;;10.15;;
69334;SDS011;56477;52.742;15.242;2024-01-06T07:35:45;27.85;;;10.15;;
69334;SDS011;56477;52.742;15.242;2024-01-06T07:38:11;30.85;;;11.63;;
69334;SDS011;56477;52.742;15.242;2024-01-06T07:40:38;28.98;;;10.65;;
69334;SDS011;56477;52.742;15.242;2024-01-06T07:43:04;20.80;;;7.63;;
69334;SDS011;56477;52.742;15.242;2024-01-06T07:45:31;26.13;;;9.63;;
69334;SDS011;56477;52.742;15.242;2024-01-06T07:47:59;24.65;;;10.43;;
69334;SDS011;56477;52.742;15.242;2024-01-06T07:50:26;29.02;;;10.15;;
69334;SDS011;56477;52.742;15.242;2024-01-06T07:52:53;28.65;;;11.68;;
69334;SDS011;56477;52.742;15.242;2024-01-06T07:55:19;25.73;;;10.33;;
69334;SDS011;56477;52.742;15.242;2024-01-06T07:57:45;29.02;;;10.20;;
69334;SDS011;56477;52.742;15.242;2024-01-06T08:00:12;28.20;;;10.93;;
69334;SDS011;56477;52.742;15.242;2024-01-06T08:02:41;28.30;;;10.57;;
69334;SDS011;56477;52.742;15.242;2024-01-06T08:05:08;27.23;;;10.55;;
69334;SDS011;56477;52.742;15.242;2024-01-06T08:07:35;24.97;;;8.40;;
69334;SDS011;56477;52.742;15.242;2024-01-06T08:10:01;23.90;;;9.45;;
69334;SDS011;56477;52.742;15.242;2024-01-06T08:12:30;29.65;;;10.38;;
69334;SDS011;56477;52.742;15.242;2024-01-06T08:14:56;16.70;;;5.97;;
69334;SDS011;56477;52.742;15.242;2024-01-06T08:17:22;29.40;;;10.77;;
69334;SDS011;56477;52.742;15.242;2024-01-06T08:19:48;25.38;;;10.48;;
69334;SDS011;56477;52.742;15.242;2024-01-06T08:22:14;25.50;;;10.77;;
69334;SDS011;56477;52.742;15.242;2024-01-06T08:24:40;23.50;;;8.90;;
69334;SDS011;56477;52.742;15.242;2024-01-06T08:27:06;28.43;;;10.17;;
69334;SDS011;56477;52.742;15.242;2024-01-06T08:29:32;19.08;;;6.57;;
69334;SDS011;56477;52.742;15.242;2024-01-06T08:31:58;24.80;;;10.50;;
69334;SDS011;56477;52.742;15.242;2024-01-06T08:34:24;25.87;;;9.87;;
69334;SDS011;56477;52.742;15.242;2024-01-06T08:36:50;28.23;;;9.70;;
69334;SDS011;56477;52.742;15.242;2024-01-06T08:39:16;26.15;;;9.60;;
69334;SDS011;56477;52.742;15.242;2024-01-06T08:41:42;21.77;;;9.25;;
69334;SDS011;56477;52.742;15.242;2024-01-06T08:44:09;23.53;;;9.27;;
69334;SDS011;56477;52.742;15.242;2024-01-06T08:46:34;25.50;;;9.35;;
69334;SDS011;56477;52.742;15.242;2024-01-06T08:49:01;26.33;;;9.18;;
69334;SDS011;56477;52.742;15.242;2024-01-06T08:51:26;22.20;;;8.53;;
69334;SDS011;56477;52.742;15.242;2024-01-06T08:53:52;21.65;;;8.63;;
69334;SDS011;56477;52.742;15.242;2024-01-06T08:56:19;23.65;;;9.55;;
69334;SDS011;56477;52.742;15.242;2024-01-06T08:58:45;18.70;;;7.63;;
69334;SDS011;56477;52.742;15.242;2024-01-06T09:01:12;22.63;;;8.45;;
69334;SDS011;56477;52.742;15.242;2024-01-06T09:03:39;17.50;;;7.07;;
69334;SDS011;56477;52.742;15.242;2024-01-06T09:06:05;19.63;;;8.15;;
69334;SDS011;56477;52.742;15.242;2024-01-06T09:08:31;20.58;;;8.02;;
69334;SDS011;56477;52.742;15.242;2024-01-06T09:10:58;25.50;;;9.15;;
69334;SDS011;56477;52.742;15.242;2024-01-06T09:13:25;25.42;;;8.63;;
69334;SDS011;56477;52.742;15.242;2024-01-06T09:15:51;24.97;;;10.00;;
69334;SDS011;56477;52.742;15.242;2024-01-06T09:18:18;25.65;;;9.38;;
69334;SDS011;56477;52.742;15.242;2024-01-06T09:20:43;25.00;;;9.18;;
69334;SDS011;56477;52.742;15.242;2024-01-06T09:23:10;24.20;;;10.93;;
69334;SDS011;56477;52.742;15.242;2024-01-06T09:25:35;21.73;;;8.60;;
69334;SDS011;56477;52.742;15.242;2024-01-06T09:28:02;26.98;;;9.63;;
69334;SDS011;56477;52.742;15.242;2024-01-06T09:30:28;22.15;;;9.35;;
69334;SDS011;56477;52.742;15.242;2024-01-06T09:32:54;26.67;;;9.80;;
69334;SDS011;56477;52.742;15.242;2024-01-06T09:35:20;25.08;;;7.95;;
69334;SDS011;56477;52.742;15.242;2024-01-06T09:37:46;26.90;;;9.38;;
69334;SDS011;56477;52.742;15.242;2024-01-06T09:40:12;19.30;;;6.57;;
69334;SDS011;56477;52.742;15.242;2024-01-06T09:42:42;20.98;;;8.02;;
69334;SDS011;56477;52.742;15.242;2024-01-06T09:45:07;20.05;;;7.75;;
69334;SDS011;56477;52.742;15.242;2024-01-06T09:47:34;27.52;;;9.38;;
69334;SDS011;56477;52.742;15.242;2024-01-06T09:50:01;16.50;;;6.10;;
69334;SDS011;56477;52.742;15.242;2024-01-06T09:52:30;23.30;;;8.02;;
69334;SDS011;56477;52.742;15.242;2024-01-06T09:54:57;23.58;;;8.43;;
69334;SDS011;56477;52.742;15.242;2024-01-06T09:57:28;29.80;;;9.93;;
69334;SDS011;56477;52.742;15.242;2024-01-06T09:59:54;24.35;;;10.15;;
69334;SDS011;56477;52.742;15.242;2024-01-06T10:02:22;23.07;;;8.40;;
69334;SDS011;56477;52.742;15.242;2024-01-06T10:04:48;27.08;;;9.70;;
69334;SDS011;56477;52.742;15.242;2024-01-06T10:07:14;23.73;;;7.97;;
69334;SDS011;56477;52.742;15.242;2024-01-06T10:09:41;23.40;;;9.55;;
69334;SDS011;56477;52.742;15.242;2024-01-06T10:12:08;24.30;;;9.37;;
69334;SDS011;56477;52.742;15.242;2024-01-06T10:14:35;22.08;;;9.20;;
69334;SDS011;56477;52.742;15.242;2024-01-06T10:17:02;21.25;;;7.63;;
69334;SDS011;56477;52.742;15.242;2024-01-06T10:19:31;17.15;;;6.93;;
69334;SDS011;56477;52.742;15.242;2024-01-06T10:21:57;21.73;;;7.93;;
69334;SDS011;56477;52.742;15.242;2024-01-06T10:24:27;24.20;;;9.00;;
69334;SDS011;56477;52.742;15.242;2024-01-06T10:26:53;29.55;;;10.13;;
69334;SDS011;56477;52.742;15.242;2024-01-06T10:29:19;21.35;;;8.73;;
69334;SDS011;56477;52.742;15.242;2024-01-06T10:31:45;27.92;;;9.60;;
69334;SDS011;56477;52.742;15.242;2024-01-06T10:34:11;22.07;;;9.17;;
69334;SDS011;56477;52.742;15.242;2024-01-06T10:36:37;18.35;;;6.32;;
69334;SDS011;56477;52.742;15.242;2024-01-06T10:39:03;21.00;;;7.63;;
69334;SDS011;56477;52.742;15.242;2024-01-06T10:41:30;20.47;;;8.40;;
69334;SDS011;56477;52.742;15.242;2024-01-06T10:43:56;24.20;;;8.68;;
69334;SDS011;56477;52.742;15.242;2024-01-06T10:46:27;24.52;;;8.70;;
69334;SDS011;56477;52.742;15.242;2024-01-06T10:48:55;21.55;;;8.10;;
69334;SDS011;56477;52.742;15.242;2024-01-06T10:51:22;23.05;;;9.10;;
69334;SDS011;56477;52.742;15.242;2024-01-06T10:53:50;16.47;;;6.20;;
69334;SDS011;56477;52.742;15.242;2024-01-06T10:56:17;13.55;;;4.95;;
69334;SDS011;56477;52.742;15.242;2024-01-06T10:58:47;16.67;;;6.70;;
69334;SDS011;56477;52.742;15.242;2024-01-06T11:01:19;20.15;;;7.28;;
69334;SDS011;56477;52.742;15.242;2024-01-06T11:03:47;13.95;;;4.47;;
69334;SDS011;56477;52.742;15.242;2024-01-06T11:06:14;6.60;;;3.07;;
69334;SDS011;56477;52.742;15.242;2024-01-06T11:11:35;15.57;;;5.70;;
69334;SDS011;56477;52.742;15.242;2024-01-06T11:16:48;19.20;;;6.57;;
69334;SDS011;56477;52.742;15.242;2024-01-06T11:19:59;15.83;;;6.40;;
69334;SDS011;56477;52.742;15.242;2024-01-06T11:24:49;8.95;;;3.40;;
69334;SDS011;56477;52.742;15.242;2024-01-06T11:27:23;12.13;;;4.55;;
69334;SDS011;56477;52.742;15.242;2024-01-06T11:30:00;15.03;;;5.20;;
69334;SDS011;56477;52.742;15.242;2024-01-06T11:32:34;12.98;;;4.35;;
69334;SDS011;56477;52.742;15.242;2024-01-06T11:35:10;12.45;;;4.18;;
69334;SDS011;56477;52.742;15.242;2024-01-06T11:42:48;14.80;;;4.00;;
69334;SDS011;56477;52.742;15.242;2024-01-06T11:45:21;12.40;;;3.42;;
69334;SDS011;56477;52.742;15.242;2024-01-06T11:47:47;11.75;;;2.92;;
69334;SDS011;56477;52.742;15.242;2024-01-06T11:50:14;12.80;;;4.00;;
69334;SDS011;56477;52.742;15.242;2024-01-06T11:52:41;10.95;;;3.28;;
69334;SDS011;56477;52.742;15.242;2024-01-06T11:55:07;10.40;;;4.30;;
69334;SDS011;56477;52.742;15.242;2024-01-06T11:57:35;8.88;;;3.30;;
69334;SDS011;56477;52.742;15.242;2024-01-06T12:00:01;10.23;;;3.50;;
69334;SDS011;56477;52.742;15.242;2024-01-06T12:02:29;15.50;;;2.83;;
69334;SDS011;56477;52.742;15.242;2024-01-06T12:04:55;9.48;;;2.80;;
69334;SDS011;56477;52.742;15.242;2024-01-06T12:07:22;5.65;;;2.15;;
69334;SDS011;56477;52.742;15.242;2024-01-06T12:09:48;9.18;;;3.33;;
69334;SDS011;56477;52.742;15.242;2024-01-06T12:12:17;5.70;;;2.10;;
69334;SDS011;56477;52.742;15.242;2024-01-06T12:14:44;10.00;;;3.35;;
69334;SDS011;56477;52.742;15.242;2024-01-06T12:17:12;13.23;;;4.97;;
69334;SDS011;56477;52.742;15.242;2024-01-06T12:19:39;21.33;;;8.93;;
69334;SDS011;56477;52.742;15.242;2024-01-06T12:22:09;10.13;;;4.35;;
69334;SDS011;56477;52.742;15.242;2024-01-06T12:24:41;12.37;;;3.10;;
69334;SDS011;56477;52.742;15.242;2024-01-06T12:27:08;10.32;;;3.75;;
69334;SDS011;56477;52.742;15.242;2024-01-06T12:29:38;6.63;;;2.30;;
69334;SDS011;56477;52.742;15.242;2024-01-06T12:32:06;10.18;;;3.30;;
69334;SDS011;56477;52.742;15.242;2024-01-06T12:34:33;7.93;;;2.53;;
69334;SDS011;56477;52.742;15.242;2024-01-06T12:37:00;7.00;;;1.97;;
69334;SDS011;56477;52.742;15.242;2024-01-06T12:39:29;8.90;;;3.05;;
69334;SDS011;56477;52.742;15.242;2024-01-06T12:41:56;8.55;;;2.30;;
69334;SDS011;56477;52.742;15.242;2024-01-06T12:44:24;9.82;;;3.00;;
69334;SDS011;56477;52.742;15.242;2024-01-06T12:46:50;10.13;;;2.80;;
69334;SDS011;56477;52.742;15.242;2024-01-06T12:49:16;8.27;;;2.10;;
69334;SDS011;56477;52.742;15.242;2024-01-06T12:51:43;11.05;;;3.15;;
69334;SDS011;56477;52.742;15.242;2024-01-06T12:54:09;11.82;;;3.65;;
69334;SDS011;56477;52.742;15.242;2024-01-06T12:56:35;7.15;;;2.58;;
69334;SDS011;56477;52.742;15.242;2024-01-06T12:59:01;8.50;;;2.47;;
69334;SDS011;56477;52.742;15.242;2024-01-06T13:01:27;9.50;;;3.60;;
69334;SDS011;56477;52.742;15.242;2024-01-06T13:03:53;9.48;;;3.85;;
69334;SDS011;56477;52.742;15.242;2024-01-06T13:06:20;6.65;;;2.22;;
69334;SDS011;56477;52.742;15.242;2024-01-06T13:08:46;11.25;;;3.45;;
69334;SDS011;56477;52.742;15.242;2024-01-06T13:11:13;8.50;;;2.90;;
69334;SDS011;56477;52.742;15.242;2024-01-06T13:13:38;9.50;;;3.20;;
69334;SDS011;56477;52.742;15.242;2024-01-06T13:16:05;10.45;;;3.65;;
69334;SDS011;56477;52.742;15.242;2024-01-06T13:18:31;8.57;;;3.25;;
69334;SDS011;56477;52.742;15.242;2024-01-06T13:20:57;9.98;;;3.97;;
69334;SDS011;56477;52.742;15.242;2024-01-06T13:23:23;9.63;;;3.77;;
69334;SDS011;56477;52.742;15.242;2024-01-06T13:25:49;7.38;;;2.65;;
69334;SDS011;56477;52.742;15.242;2024-01-06T13:28:15;10.27;;;3.45;;
69334;SDS011;56477;52.742;15.242;2024-01-06T13:30:41;8.97;;;2.97;;
69334;SDS011;56477;52.742;15.242;2024-01-06T13:33:07;9.70;;;3.53;;
69334;SDS011;56477;52.742;15.242;2024-01-06T13:35:36;11.63;;;3.75;;
69334;SDS011;56477;52.742;15.242;2024-01-06T13:38:05;11.75;;;3.95;;
69334;SDS011;56477;52.742;15.242;2024-01-06T13:40:34;11.63;;;3.57;;
69334;SDS011;56477;52.742;15.242;2024-01-06T13:43:01;9.15;;;2.78;;
69334;SDS011;56477;52.742;15.242;2024-01-06T13:45:30;10.13;;;3.40;;
69334;SDS011;56477;52.742;15.242;2024-01-06T13:47:56;9.20;;;3.42;;
69334;SDS011;56477;52.742;15.242;2024-01-06T13:50:23;14.13;;;3.90;;
69334;SDS011;56477;52.742;15.242;2024-01-06T13:52:49;10.13;;;3.87;;
69334;SDS011;56477;52.742;15.242;2024-01-06T13:55:15;10.07;;;3.47;;
69334;SDS011;56477;52.742;15.242;2024-01-06T13:57:41;6.40;;;2.53;;
69334;SDS011;56477;52.742;15.242;2024-01-06T14:00:07;9.50;;;3.27;;
69334;SDS011;56477;52.742;15.242;2024-01-06T14:02:37;11.32;;;3.25;;
69334;SDS011;56477;52.742;15.242;2024-01-06T14:05:04;10.77;;;4.25;;
69334;SDS011;56477;52.742;15.242;2024-01-06T14:07:34;11.70;;;4.50;;
69334;SDS011;56477;52.742;15.242;2024-01-06T14:10:01;10.27;;;3.67;;
69334;SDS011;56477;52.742;15.242;2024-01-06T14:12:29;5.57;;;1.97;;
69334;SDS011;56477;52.742;15.242;2024-01-06T14:14:56;5.13;;;1.70;;
69334;SDS011;56477;52.742;15.242;2024-01-06T14:17:22;7.10;;;2.47;;
69334;SDS011;56477;52.742;15.242;2024-01-06T14:19:48;12.02;;;4.53;;
69334;SDS011;56477;52.742;15.242;2024-01-06T14:22:14;12.10;;;4.50;;
69334;SDS011;56477;52.742;15.242;2024-01-06T14:24:40;13.80;;;4.68;;
69334;SDS011;56477;52.742;15.242;2024-01-06T14:27:06;8.53;;;3.80;;
69334;SDS011;56477;52.742;15.242;2024-01-06T14:29:32;10.73;;;4.30;;